CheckWX is a tool to help pilots better visualize weather data.  It is not intended as a substitute for an official pre-flight weather briefing.

16:05:17 UTC

40J METAR
Perry-Foley Airport
Perry, Florida, USA
Current

30 mins ago

K40J 131535Z AUTO 00000KT 2SM BR OVC003 13/12 A3002 RMK AO2 T01250120
Observed
Dec-13 @ 15:35 UTC
Visibility
2 SM
Flight Rules
LIFR
Conditions
Mist
Cloud Levels
  • Overcast at 300' AGL
Temperature
13°C / 55°F
Dewpoint
12°C / 54°F
Humidity
94%
Altimeter
30.02" Hg
Pressure
1016.62 hPa
Previous

50 mins ago

K40J 131515Z AUTO 04003KT 2SM BR OVC003 12/12 A3003 RMK AO2 T01230118
Observed
Dec-13 @ 15:15 UTC
Wind
  • 040° at 3 KTS
Visibility
2 SM
Flight Rules
LIFR
Conditions
Mist
Cloud Levels
  • Overcast at 300' AGL
Temperature
12°C / 54°F
Dewpoint
12°C / 54°F
Humidity
100%
Altimeter
30.03" Hg
Pressure
1016.92 hPa
Previous

1 hour ago

K40J 131455Z AUTO 04003KT 2SM BR OVC003 12/12 A3003 RMK AO2 60001 T01230118
Observed
Dec-13 @ 14:55 UTC
Wind
  • 040° at 3 KTS
Visibility
2 SM
Flight Rules
LIFR
Conditions
Mist
Cloud Levels
  • Overcast at 300' AGL
Temperature
12°C / 54°F
Dewpoint
12°C / 54°F
Humidity
100%
Altimeter
30.03" Hg
Pressure
1016.92 hPa